Delta Ios — SVAK9 — position and weather

sailwx.info

Track history (hours):
 
Tides and Currents Weather Stations Pressure Air Temp Water Temp Dewpoint Dewpoint Depression Visibility Wind Speed Wind Dir Waves Ship Positions

Delta Ios

Last reported at 2015-May-26 13:18 UTC. Time now 2015-May-30 00:25 UTC.
Position N 27°39' W 016°34'.

Length 276 m; draft 9 m.

Type: Ship. MMSI: 240821000.

Date/timePositionNaut miles runAvg speedWind from/ knotsBaromVisibWave heightAir tempDewpointWater temp
2015-May-26 13:18N 27°39' W 016°34'2714.9
2015-May-26 11:31N 28°03' W 016°21'1715.2
2015-May-26 10:24N 28°19' W 016°15'910.0
2015-May-26 09:33N 28°27' W 016°11'1 1.1
2015-May-26 08:29N 28°27' W 016°10'2 2.3
2015-May-26 07:33N 28°27' W 016°07'8 7.6
2015-May-26 06:33N 28°26' W 015°58'1211.8
2015-May-26 05:33N 28°34' W 015°49'1212.4
2015-May-26 04:33N 28°44' W 015°41'1212.2
2015-May-26 03:33N 28°55' W 015°35'1211.9
2015-May-26 02:33N 29°06' W 015°29'1212.2
2015-May-26 01:32N 29°18' W 015°25'1212.5
2015-May-26 00:32N 29°30' W 015°20'1512.6
2015-May-25 23:21N 29°44' W 015°14'1012.6
2015-May-25 22:33N 29°54' W 015°11'1612.9
2015-May-25 21:20N 30°08' W 015°04'1013.0
2015-May-25 20:33N 30°18' W 015°00'1312.8
2015-May-25 19:33N 30°30' W 014°54'48513.4
2015-May-24 07:24N 37°20' W 009°43'1113.0
2015-May-24 06:33N 37°27' W 009°32'1313.3
2015-May-24 05:33N 37°35' W 009°20'1313.1
2015-May-24 04:33N 37°44' W 009°08'1313.1
2015-May-24 03:33N 37°53' W 008°56'4 3.9
2015-May-24 02:34N 37°57' W 008°53'0 0.0
2015-May-24 01:31N 37°57' W 008°53'0 0.0
2015-May-24 00:31N 37°57' W 008°53'0 0.0
2015-May-23 23:31N 37°57' W 008°53'0 0.0
2015-May-23 22:31N 37°57' W 008°53'0 0.0
2015-May-23 21:31N 37°57' W 008°53'0 0.0
2015-May-23 20:25N 37°57' W 008°53'0 0.0
2015-May-23 19:31N 37°57' W 008°53'0 0.0
2015-May-23 18:31N 37°57' W 008°53'0 0.0
2015-May-23 17:31N 37°57' W 008°53'0 0.0
2015-May-23 16:31N 37°57' W 008°53'0 0.0
2015-May-23 15:31N 37°57' W 008°53'0 0.0
2015-May-23 14:31N 37°57' W 008°53'0 0.0
2015-May-23 13:28N 37°57' W 008°53'0 0.0
2015-May-23 12:31N 37°57' W 008°53'0 0.0
2015-May-23 11:31N 37°57' W 008°53'0 0.0
2015-May-23 10:31N 37°57' W 008°53'0 0.0
2015-May-23 09:31N 37°57' W 008°53'0 0.0
2015-May-23 08:31N 37°57' W 008°53'0 0.0
2015-May-23 07:31N 37°57' W 008°53'0 0.0
2015-May-23 06:31N 37°57' W 008°53'0 0.0
2015-May-23 05:31N 37°57' W 008°53'0 0.0
2015-May-23 04:28N 37°57' W 008°53'0 0.0
2015-May-23 03:31N 37°57' W 008°53'0 0.0
2015-May-23 02:28N 37°57' W 008°53'0 0.0
2015-May-23 01:31N 37°57' W 008°53'0 0.0
2015-May-23 00:31N 37°57' W 008°53'0 0.0
2015-May-22 23:31N 37°57' W 008°53'0 0.0
2015-May-22 22:31N 37°57' W 008°53'0 0.0
2015-May-22 21:31N 37°57' W 008°53'0 0.0
2015-May-22 20:31N 37°57' W 008°53'0 0.0
2015-May-22 19:31N 37°57' W 008°53'0 0.0
2015-May-22 18:31N 37°57' W 008°53'0 0.0
2015-May-22 17:31N 37°57' W 008°53'0 0.0
2015-May-22 16:31N 37°57' W 008°53'0 0.0
2015-May-22 15:31N 37°57' W 008°53'0 0.0
2015-May-22 14:31N 37°57' W 008°53'0 0.0
2015-May-22 13:31N 37°57' W 008°53'0 0.0
2015-May-22 12:31N 37°57' W 008°53'0 0.0
2015-May-22 11:31N 37°57' W 008°53'0 0.0
2015-May-22 10:31N 37°57' W 008°53'0 0.0
2015-May-22 09:31N 37°57' W 008°53'0 0.0
2015-May-22 08:31N 37°57' W 008°53'0 0.0
2015-May-22 07:28N 37°57' W 008°53'0 0.5
2015-May-22 06:33N 37°56' W 008°53'5 4.5
2015-May-22 05:33N 37°52' W 008°56'1111.1
2015-May-22 04:33N 37°45' W 009°06'9 8.6
2015-May-22 03:33N 37°39' W 009°14'1211.8
2015-May-22 02:33N 37°32' W 009°26'1010.5
2015-May-22 01:33N 37°22' W 009°29'1211.6
2015-May-22 00:33N 37°10' W 009°27'1111.4
2015-May-21 23:33N 36°59' W 009°26'1110.9
2015-May-21 22:33N 36°49' W 009°21'1111.3
2015-May-21 21:33N 36°40' W 009°11'1211.6
2015-May-21 20:33N 36°37' W 008°57'1212.0
2015-May-21 19:33N 36°33' W 008°43'3411.2
2015-May-21 16:29N 36°22' W 008°03'1010.6
2015-May-21 15:33N 36°19' W 007°51'11111.1
2015-May-21 05:33N 35°58' W 005°36'1111.2
2015-May-21 04:33N 36°01' W 005°23'1010.2
2015-May-21 03:33N 36°03' W 005°10'100 8.2
2015-May-20 15:19N 36°26' W 003°10'6 7.8
2015-May-20 14:33N 36°26' W 003°02'8 8.1
2015-May-20 13:32N 36°26' W 002°52'9 8.6
2015-May-20 12:33N 36°26' W 002°42'10 9.6
2015-May-20 11:33N 36°26' W 002°30'4410.1
2015-May-20 07:12N 36°44' W 001°40'710.8
2015-May-20 06:31N 36°48' W 001°31'2410.7
2015-May-20 04:16N 36°58' W 001°04'810.8
2015-May-20 03:33N 37°01' W 000°55'1211.0
2015-May-20 02:30N 37°06' W 000°42'2610.7
2015-May-20 00:05N 37°17' W 000°13'1810.3
2015-May-19 22:20N 37°25' E 000°07'24210.6
2015-May-18 23:33N 38°15' E 005°08'1111.0
2015-May-18 22:33N 38°15' E 005°22'1610.8
2015-May-18 21:07N 38°14' E 005°41'13611.3
2015-May-18 09:04N 38°14' E 008°35'16011.0
2015-May-17 18:30N 37°48' E 011°56'1511.4
2015-May-17 17:14N 37°40' E 012°11'811.1
2015-May-17 16:33N 37°35' E 012°19'6810.6
2015-May-17 10:09N 37°04' E 013°34'710.7
2015-May-17 09:28N 36°60' E 013°42'1011.1
2015-May-17 08:33N 36°55' E 013°52'1111.3
2015-May-17 07:33N 36°48' E 014°04'1111.2
2015-May-17 06:33N 36°41' E 014°14'1110.7
2015-May-17 05:33N 36°34' E 014°25'1110.7
2015-May-17 04:33N 36°28' E 014°36'1311.0
2015-May-17 03:22N 36°28' E 014°52'13811.6
2015-May-16 15:28N 36°25' E 017°43'  
Track history (hours):
 
Tides and Currents Weather Stations Pressure Air Temp Water Temp Dewpoint Dewpoint Depression Visibility Wind Speed Wind Dir Waves Ship Positions

Delta Ios

Last reported at 2015-May-26 13:18 UTC. Time now 2015-May-30 00:25 UTC.
Position N 27°39' W 016°34'.

Length 276 m; draft 9 m.

Type: Ship. MMSI: 240821000.

Date/timePositionNaut miles runAvg speedWind from/ knotsBaromVisibWave heightAir tempDewpointWater temp
2015-May-26 13:18N 27°39' W 016°34'2714.9
2015-May-26 11:31N 28°03' W 016°21'1715.2
2015-May-26 10:24N 28°19' W 016°15'910.0
2015-May-26 09:33N 28°27' W 016°11'1 1.1
2015-May-26 08:29N 28°27' W 016°10'2 2.3
2015-May-26 07:33N 28°27' W 016°07'8 7.6
2015-May-26 06:33N 28°26' W 015°58'1211.8
2015-May-26 05:33N 28°34' W 015°49'1212.4
2015-May-26 04:33N 28°44' W 015°41'1212.2
2015-May-26 03:33N 28°55' W 015°35'1211.9
2015-May-26 02:33N 29°06' W 015°29'1212.2
2015-May-26 01:32N 29°18' W 015°25'1212.5
2015-May-26 00:32N 29°30' W 015°20'1512.6
2015-May-25 23:21N 29°44' W 015°14'1012.6
2015-May-25 22:33N 29°54' W 015°11'1612.9
2015-May-25 21:20N 30°08' W 015°04'1013.0
2015-May-25 20:33N 30°18' W 015°00'1312.8
2015-May-25 19:33N 30°30' W 014°54'48513.4
2015-May-24 07:24N 37°20' W 009°43'1113.0
2015-May-24 06:33N 37°27' W 009°32'1313.3
2015-May-24 05:33N 37°35' W 009°20'1313.1
2015-May-24 04:33N 37°44' W 009°08'1313.1
2015-May-24 03:33N 37°53' W 008°56'4 3.9
2015-May-24 02:34N 37°57' W 008°53'0 0.0
2015-May-24 01:31N 37°57' W 008°53'0 0.0
2015-May-24 00:31N 37°57' W 008°53'0 0.0
2015-May-23 23:31N 37°57' W 008°53'0 0.0
2015-May-23 22:31N 37°57' W 008°53'0 0.0
2015-May-23 21:31N 37°57' W 008°53'0 0.0
2015-May-23 20:25N 37°57' W 008°53'0 0.0
2015-May-23 19:31N 37°57' W 008°53'0 0.0
2015-May-23 18:31N 37°57' W 008°53'0 0.0
2015-May-23 17:31N 37°57' W 008°53'0 0.0
2015-May-23 16:31N 37°57' W 008°53'0 0.0
2015-May-23 15:31N 37°57' W 008°53'0 0.0
2015-May-23 14:31N 37°57' W 008°53'0 0.0
2015-May-23 13:28N 37°57' W 008°53'0 0.0
2015-May-23 12:31N 37°57' W 008°53'0 0.0
2015-May-23 11:31N 37°57' W 008°53'0 0.0
2015-May-23 10:31N 37°57' W 008°53'0 0.0
2015-May-23 09:31N 37°57' W 008°53'0 0.0
2015-May-23 08:31N 37°57' W 008°53'0 0.0
2015-May-23 07:31N 37°57' W 008°53'0 0.0
2015-May-23 06:31N 37°57' W 008°53'0 0.0
2015-May-23 05:31N 37°57' W 008°53'0 0.0
2015-May-23 04:28N 37°57' W 008°53'0 0.0
2015-May-23 03:31N 37°57' W 008°53'0 0.0
2015-May-23 02:28N 37°57' W 008°53'0 0.0
2015-May-23 01:31N 37°57' W 008°53'0 0.0
2015-May-23 00:31N 37°57' W 008°53'0 0.0
2015-May-22 23:31N 37°57' W 008°53'0 0.0
2015-May-22 22:31N 37°57' W 008°53'0 0.0
2015-May-22 21:31N 37°57' W 008°53'0 0.0
2015-May-22 20:31N 37°57' W 008°53'0 0.0
2015-May-22 19:31N 37°57' W 008°53'0 0.0
2015-May-22 18:31N 37°57' W 008°53'0 0.0
2015-May-22 17:31N 37°57' W 008°53'0 0.0
2015-May-22 16:31N 37°57' W 008°53'0 0.0
2015-May-22 15:31N 37°57' W 008°53'0 0.0
2015-May-22 14:31N 37°57' W 008°53'0 0.0
2015-May-22 13:31N 37°57' W 008°53'0 0.0
2015-May-22 12:31N 37°57' W 008°53'0 0.0
2015-May-22 11:31N 37°57' W 008°53'0 0.0
2015-May-22 10:31N 37°57' W 008°53'0 0.0
2015-May-22 09:31N 37°57' W 008°53'0 0.0
2015-May-22 08:31N 37°57' W 008°53'0 0.0
2015-May-22 07:28N 37°57' W 008°53'0 0.5
2015-May-22 06:33N 37°56' W 008°53'5 4.5
2015-May-22 05:33N 37°52' W 008°56'1111.1
2015-May-22 04:33N 37°45' W 009°06'9 8.6
2015-May-22 03:33N 37°39' W 009°14'1211.8
2015-May-22 02:33N 37°32' W 009°26'1010.5
2015-May-22 01:33N 37°22' W 009°29'1211.6
2015-May-22 00:33N 37°10' W 009°27'1111.4
2015-May-21 23:33N 36°59' W 009°26'1110.9
2015-May-21 22:33N 36°49' W 009°21'1111.3
2015-May-21 21:33N 36°40' W 009°11'1211.6
2015-May-21 20:33N 36°37' W 008°57'1212.0
2015-May-21 19:33N 36°33' W 008°43'3411.2
2015-May-21 16:29N 36°22' W 008°03'1010.6
2015-May-21 15:33N 36°19' W 007°51'11111.1
2015-May-21 05:33N 35°58' W 005°36'1111.2
2015-May-21 04:33N 36°01' W 005°23'1010.2
2015-May-21 03:33N 36°03' W 005°10'100 8.2
2015-May-20 15:19N 36°26' W 003°10'6 7.8
2015-May-20 14:33N 36°26' W 003°02'8 8.1
2015-May-20 13:32N 36°26' W 002°52'9 8.6
2015-May-20 12:33N 36°26' W 002°42'10 9.6
2015-May-20 11:33N 36°26' W 002°30'4410.1
2015-May-20 07:12N 36°44' W 001°40'710.8
2015-May-20 06:31N 36°48' W 001°31'2410.7
2015-May-20 04:16N 36°58' W 001°04'810.8
2015-May-20 03:33N 37°01' W 000°55'1211.0
2015-May-20 02:30N 37°06' W 000°42'2610.7
2015-May-20 00:05N 37°17' W 000°13'1810.3
2015-May-19 22:20N 37°25' E 000°07'24210.6
2015-May-18 23:33N 38°15' E 005°08'1111.0
2015-May-18 22:33N 38°15' E 005°22'1610.8
2015-May-18 21:07N 38°14' E 005°41'13611.3
2015-May-18 09:04N 38°14' E 008°35'16011.0
2015-May-17 18:30N 37°48' E 011°56'1511.4
2015-May-17 17:14N 37°40' E 012°11'811.1
2015-May-17 16:33N 37°35' E 012°19'6810.6
2015-May-17 10:09N 37°04' E 013°34'710.7
2015-May-17 09:28N 36°60' E 013°42'1011.1
2015-May-17 08:33N 36°55' E 013°52'1111.3
2015-May-17 07:33N 36°48' E 014°04'1111.2
2015-May-17 06:33N 36°41' E 014°14'1110.7
2015-May-17 05:33N 36°34' E 014°25'1110.7
2015-May-17 04:33N 36°28' E 014°36'1311.0
2015-May-17 03:22N 36°28' E 014°52'13811.6
2015-May-16 15:28N 36°25' E 017°43'  

Dump ship's entire track history